KLWB/LWB METAR and TAF weather

Enter ICAO airport designator
Station Type Date Time Source
KLWB METAR 2020/11/27 03:15 UTC NOAA

KLWB 270315Z AUTO 00000KT 10SM CLR 05/04 A3011 RMK AO2 T00510041


Station Type Date Time Source
KLWB Decoded METAR 2020/11/27 03:15 UTC NOAA

Lewisburg / Greenbrier, WV, United States (KLWB) 37-52N 080-24W
Nov 26, 2020 - 10:15 PM EST / 2020.11.27 0315 UTC
Wind: Calm:0
Visibility: 10 mile(s):0
Sky conditions: clear
Temperature: 41.2 F (5.1 C)
Dew Point: 39.4 F (4.1 C)
Relative Humidity: 93%
Pressure (altimeter): 30.11 in. Hg (1019 hPa)
ob: KLWB 270315Z AUTO 00000KT 10SM CLR 05/04 A3011 RMK AO2 T00510041
cycle: 3

Station Type Date Time Source
KLWB TAF 2020/11/26 18:27 UTC NOAA

TAF KLWB 261724Z 2618/2718 24010KT P6SM SCT035
FM262100 26006KT P6SM SKC
FM270000 00000KT P6SM SKC
FM270700 00000KT 3SM BR BKN015
FM271100 00000KT 6SM BR OVC008
FM271500 26003KT P6SM SCT008

Example: see airport list